PRIVATE WETTERSTATION BILLIGHEIM-ALLFELD                       ZURCK
Wetterdaten: Mittwoch, 24.05.2017
Datum Zeit Temp. A. Temp. A. min Temp. A. max Feuchte A. Luftdruck Regen Wind Richtung Richtung Sonnenschein ET Solar Taupunkt Windchill Windben Empfang
24.05.2017 00:00 17,2 C 17,2 C 17,2 C 75 % 1019,1 hPa 0,0 l/m 6,4 km/h (2 Bft) N-NW 337 0 min 0,025 mm 0 W/m 12,7 C 17,2 C 16,1 km/h (3 Bft) 100 %
24.05.2017 00:10 17,0 C 17,0 C 17,2 C 75 % 1019,3 hPa 0,0 l/m 6,4 km/h (2 Bft) N-NW 337 0 min 0,000 mm 0 W/m 12,5 C 17,0 C 16,1 km/h (3 Bft) 99 %
24.05.2017 00:20 16,9 C 16,9 C 17,0 C 75 % 1019,3 hPa 0,0 l/m 6,4 km/h (2 Bft) N-NW 337 0 min 0,000 mm 0 W/m 12,4 C 16,9 C 11,3 km/h (2 Bft) 100 %
24.05.2017 00:30 16,7 C 16,7 C 16,9 C 74 % 1019,4 hPa 0,0 l/m 8,0 km/h (2 Bft) N-NW 337 0 min 0,000 mm 0 W/m 12,0 C 15,9 C 20,9 km/h (4 Bft) 98 %
24.05.2017 00:40 16,7 C 16,7 C 16,7 C 73 % 1019,5 hPa 0,0 l/m 4,8 km/h (1 Bft) NW 315 0 min 0,000 mm 0 W/m 11,8 C 16,7 C 16,1 km/h (3 Bft) 98 %
24.05.2017 00:50 16,6 C 16,6 C 16,7 C 73 % 1019,4 hPa 0,0 l/m 6,4 km/h (2 Bft) N-NW 337 0 min 0,000 mm 0 W/m 11,7 C 16,6 C 16,1 km/h (3 Bft) 97 %
24.05.2017 01:00 16,5 C 16,5 C 16,6 C 72 % 1019,5 hPa 0,0 l/m 6,4 km/h (2 Bft) N-NW 337 0 min 0,025 mm 0 W/m 11,4 C 16,5 C 16,1 km/h (3 Bft) 97 %
24.05.2017 01:10 16,5 C 16,5 C 16,5 C 72 % 1019,6 hPa 0,0 l/m 4,8 km/h (1 Bft) NW 315 0 min 0,000 mm 0 W/m 11,4 C 16,5 C 16,1 km/h (3 Bft) 98 %
24.05.2017 01:20 16,4 C 16,4 C 16,5 C 72 % 1019,6 hPa 0,0 l/m 4,8 km/h (1 Bft) NW 315 0 min 0,000 mm 0 W/m 11,3 C 16,4 C 14,5 km/h (3 Bft) 97 %
24.05.2017 01:30 16,3 C 16,3 C 16,4 C 71 % 1019,6 hPa 0,0 l/m 8,0 km/h (2 Bft) NW 315 0 min 0,000 mm 0 W/m 11,0 C 15,5 C 16,1 km/h (3 Bft) 98 %
24.05.2017 01:40 16,2 C 16,2 C 16,3 C 71 % 1019,6 hPa 0,0 l/m 6,4 km/h (2 Bft) NW 315 0 min 0,000 mm 0 W/m 10,9 C 16,2 C 11,3 km/h (2 Bft) 96 %
24.05.2017 01:50 16,1 C 16,1 C 16,2 C 70 % 1019,5 hPa 0,0 l/m 6,4 km/h (2 Bft) NW 315 0 min 0,000 mm 0 W/m 10,6 C 16,1 C 11,3 km/h (2 Bft) 98 %
24.05.2017 02:00 15,8 C 15,8 C 16,1 C 71 % 1019,7 hPa 0,0 l/m 6,4 km/h (2 Bft) NW 315 0 min 0,051 mm 0 W/m 10,6 C 15,8 C 14,5 km/h (3 Bft) 98 %
24.05.2017 02:10 15,6 C 15,6 C 15,8 C 71 % 1019,9 hPa 0,0 l/m 6,4 km/h (2 Bft) NW 315 0 min 0,000 mm 0 W/m 10,4 C 15,6 C 14,5 km/h (3 Bft) 97 %
24.05.2017 02:20 15,3 C 15,3 C 15,6 C 70 % 1020,1 hPa 0,0 l/m 6,4 km/h (2 Bft) NW 315 0 min 0,000 mm 0 W/m 9,9 C 15,3 C 17,7 km/h (3 Bft) 98 %
24.05.2017 02:30 15,1 C 15,1 C 15,3 C 70 % 1020,1 hPa 0,0 l/m 6,4 km/h (2 Bft) NW 315 0 min 0,000 mm 0 W/m 9,7 C 15,1 C 14,5 km/h (3 Bft) 97 %
24.05.2017 02:40 14,8 C 14,8 C 15,1 C 71 % 1020,1 hPa 0,0 l/m 4,8 km/h (1 Bft) NW 315 0 min 0,000 mm 0 W/m 9,6 C 14,8 C 16,1 km/h (3 Bft) 97 %
24.05.2017 02:50 14,6 C 14,6 C 14,8 C 71 % 1020,2 hPa 0,0 l/m 4,8 km/h (1 Bft) NW 315 0 min 0,000 mm 0 W/m 9,4 C 14,6 C 11,3 km/h (2 Bft) 97 %
24.05.2017 03:00 14,2 C 14,2 C 14,6 C 71 % 1020,4 hPa 0,0 l/m 4,8 km/h (1 Bft) NW 315 0 min 0,025 mm 0 W/m 9,0 C 14,2 C 14,5 km/h (3 Bft) 98 %
24.05.2017 03:10 14,1 C 14,1 C 14,2 C 71 % 1020,4 hPa 0,0 l/m 8,0 km/h (2 Bft) N-NW 337 0 min 0,000 mm 0 W/m 8,9 C 13,2 C 17,7 km/h (3 Bft) 98 %
24.05.2017 03:20 13,9 C 13,9 C 14,1 C 72 % 1020,5 hPa 0,0 l/m 1,6 km/h (1 Bft) N-NW 337 0 min 0,000 mm 0 W/m 8,9 C 13,9 C 8,0 km/h (2 Bft) 97 %
24.05.2017 03:30 13,6 C 13,6 C 13,9 C 73 % 1020,5 hPa 0,0 l/m 3,2 km/h (1 Bft) NW 315 0 min 0,000 mm 0 W/m 8,9 C 13,6 C 9,7 km/h (2 Bft) 98 %
24.05.2017 03:40 13,3 C 13,3 C 13,6 C 74 % 1020,5 hPa 0,0 l/m 1,6 km/h (1 Bft) NW 315 0 min 0,000 mm 0 W/m 8,8 C 13,3 C 9,7 km/h (2 Bft) 97 %
24.05.2017 03:50 12,9 C 12,9 C 13,3 C 75 % 1020,5 hPa 0,0 l/m 0,0 km/h (0 Bft) N-NW 337 0 min 0,000 mm 0 W/m 8,6 C 12,9 C 8,0 km/h (2 Bft) 98 %
24.05.2017 04:00 12,6 C 12,6 C 12,9 C 76 % 1020,5 hPa 0,0 l/m 1,6 km/h (1 Bft) N-NW 337 0 min 0,025 mm 0 W/m 8,5 C 12,6 C 11,3 km/h (2 Bft) 97 %
24.05.2017 04:10 12,3 C 12,3 C 12,6 C 76 % 1020,7 hPa 0,0 l/m 3,2 km/h (1 Bft) N-NW 337 0 min 0,000 mm 0 W/m 8,2 C 12,3 C 8,0 km/h (2 Bft) 98 %
24.05.2017 04:20 12,2 C 12,2 C 12,3 C 76 % 1020,7 hPa 0,0 l/m 6,4 km/h (2 Bft) NW 315 0 min 0,000 mm 0 W/m 8,1 C 12,2 C 11,3 km/h (2 Bft) 98 %
24.05.2017 04:30 12,2 C 12,2 C 12,2 C 76 % 1020,7 hPa 0,0 l/m 6,4 km/h (2 Bft) NW 315 0 min 0,000 mm 0 W/m 8,1 C 12,2 C 11,3 km/h (2 Bft) 97 %
24.05.2017 04:40 12,1 C 12,1 C 12,2 C 75 % 1020,8 hPa 0,0 l/m 1,6 km/h (1 Bft) NW 315 0 min 0,000 mm 0 W/m 7,8 C 12,1 C 8,0 km/h (2 Bft) 98 %
24.05.2017 04:50 12,1 C 12,1 C 12,1 C 76 % 1020,9 hPa 0,0 l/m 1,6 km/h (1 Bft) NW 315 0 min 0,000 mm 0 W/m 8,0 C 12,1 C 9,7 km/h (2 Bft) 97 %
24.05.2017 05:00 12,1 C 12,1 C 12,1 C 76 % 1020,9 hPa 0,0 l/m 0,0 km/h (0 Bft) NW 315 0 min 0,025 mm 0 W/m 8,0 C 12,1 C 8,0 km/h (2 Bft) 98 %
24.05.2017 05:10 11,9 C 11,9 C 12,1 C 75 % 1021,0 hPa 0,0 l/m 0,0 km/h (0 Bft) N-NW 337 0 min 0,000 mm 0 W/m 7,6 C 11,9 C 4,8 km/h (1 Bft) 97 %
24.05.2017 05:20 11,9 C 11,9 C 12,0 C 75 % 1021,0 hPa 0,0 l/m 0,0 km/h (0 Bft) NW 315 0 min 0,000 mm 0 W/m 7,6 C 11,9 C 1,6 km/h (1 Bft) 97 %
24.05.2017 05:30 11,8 C 11,8 C 11,9 C 75 % 1020,8 hPa 0,0 l/m 0,0 km/h (0 Bft) NW 315 0 min 0,000 mm 5 W/m 7,5 C 11,8 C 1,6 km/h (1 Bft) 98 %
24.05.2017 05:40 11,8 C 11,8 C 11,8 C 75 % 1020,9 hPa 0,0 l/m 0,0 km/h (0 Bft) N 0 0 min 0,000 mm 12 W/m 7,5 C 11,8 C 0,0 km/h (0 Bft) 97 %
24.05.2017 05:50 11,8 C 11,8 C 11,8 C 75 % 1020,9 hPa 0,0 l/m 0,0 km/h (0 Bft) N 0 0 min 0,000 mm 14 W/m 7,5 C 11,8 C 0,0 km/h (0 Bft) 98 %
24.05.2017 06:00 11,7 C 11,7 C 11,8 C 75 % 1021,1 hPa 0,0 l/m 0,0 km/h (0 Bft) N 0 0 min 0,000 mm 12 W/m 7,4 C 11,7 C 0,0 km/h (0 Bft) 96 %
24.05.2017 06:10 11,6 C 11,6 C 11,7 C 76 % 1021,1 hPa 0,0 l/m 0,0 km/h (0 Bft) W-NW 292 0 min 0,000 mm 14 W/m 7,5 C 11,6 C 1,6 km/h (1 Bft) 98 %
24.05.2017 06:20 11,5 C 11,5 C 11,6 C 76 % 1021,3 hPa 0,0 l/m 0,0 km/h (0 Bft) W-NW 292 0 min 0,000 mm 14 W/m 7,4 C 11,5 C 1,6 km/h (1 Bft) 97 %
24.05.2017 06:30 11,4 C 11,4 C 11,5 C 77 % 1021,5 hPa 0,0 l/m 0,0 km/h (0 Bft) N 0 0 min 0,000 mm 18 W/m 7,5 C 11,4 C 0,0 km/h (0 Bft) 98 %
24.05.2017 06:40 11,4 C 11,4 C 11,4 C 80 % 1021,6 hPa 0,0 l/m 0,0 km/h (0 Bft) N 0 0 min 0,000 mm 19 W/m 8,1 C 11,4 C 0,0 km/h (0 Bft) 98 %
24.05.2017 06:50 11,3 C 11,3 C 11,4 C 79 % 1021,7 hPa 0,0 l/m 0,0 km/h (0 Bft) NW 315 0 min 0,000 mm 21 W/m 7,8 C 11,3 C 1,6 km/h (1 Bft) 97 %
24.05.2017 07:00 11,3 C 11,2 C 11,3 C 80 % 1021,7 hPa 0,0 l/m 1,6 km/h (1 Bft) N-NW 337 0 min 0,000 mm 23 W/m 8,0 C 11,3 C 9,7 km/h (2 Bft) 97 %
24.05.2017 07:10 11,3 C 11,2 C 11,3 C 81 % 1021,8 hPa 0,0 l/m 8,0 km/h (2 Bft) NW 315 0 min 0,000 mm 23 W/m 8,2 C 10,2 C 11,3 km/h (2 Bft) 97 %
24.05.2017 07:20 11,4 C 11,3 C 11,4 C 80 % 1021,8 hPa 0,0 l/m 6,4 km/h (2 Bft) NW 315 0 min 0,000 mm 23 W/m 8,1 C 11,4 C 12,9 km/h (3 Bft) 98 %
24.05.2017 07:30 11,6 C 11,4 C 11,7 C 79 % 1021,9 hPa 0,0 l/m 6,4 km/h (2 Bft) NW 315 0 min 0,000 mm 25 W/m 8,1 C 11,6 C 14,5 km/h (3 Bft) 97 %
24.05.2017 07:40 11,9 C 11,7 C 11,9 C 77 % 1022,0 hPa 0,0 l/m 6,4 km/h (2 Bft) NW 315 0 min 0,000 mm 28 W/m 8,0 C 11,9 C 14,5 km/h (3 Bft) 98 %
24.05.2017 07:50 12,2 C 11,9 C 12,2 C 76 % 1022,2 hPa 0,0 l/m 3,2 km/h (1 Bft) NW 315 0 min 0,000 mm 33 W/m 8,1 C 12,2 C 11,3 km/h (2 Bft) 98 %
24.05.2017 08:00 12,4 C 12,2 C 12,4 C 76 % 1022,1 hPa 0,0 l/m 3,2 km/h (1 Bft) NW 315 0 min 0,025 mm 51 W/m 8,3 C 12,4 C 11,3 km/h (2 Bft) 100 %
24.05.2017 08:10 12,6 C 12,4 C 12,6 C 75 % 1022,3 hPa 0,0 l/m 1,6 km/h (1 Bft) NW 315 10 min 0,000 mm 153 W/m 8,3 C 12,6 C 12,9 km/h (3 Bft) 100 %
24.05.2017 08:20 13,1 C 12,6 C 13,1 C 77 % 1022,3 hPa 0,0 l/m 1,6 km/h (1 Bft) NW 315 10 min 0,000 mm 411 W/m 9,2 C 13,1 C 9,7 km/h (2 Bft) 99 %
24.05.2017 08:30 14,1 C 13,1 C 14,1 C 73 % 1022,5 hPa 0,0 l/m 1,6 km/h (1 Bft) NW 315 10 min 0,000 mm 448 W/m 9,3 C 14,1 C 9,7 km/h (2 Bft) 100 %
24.05.2017 08:40 15,1 C 14,1 C 15,1 C 68 % 1022,3 hPa 0,0 l/m 1,6 km/h (1 Bft) W-NW 292 10 min 0,000 mm 475 W/m 9,2 C 15,1 C 8,0 km/h (2 Bft) 100 %
24.05.2017 08:50 15,8 C 15,1 C 15,8 C 66 % 1022,4 hPa 0,0 l/m 1,6 km/h (1 Bft) NW 315 10 min 0,000 mm 503 W/m 9,5 C 15,8 C 14,5 km/h (3 Bft) 100 %
24.05.2017 09:00 16,4 C 15,8 C 16,4 C 64 % 1022,5 hPa 0,0 l/m 1,6 km/h (1 Bft) W-NW 292 10 min 0,203 mm 533 W/m 9,6 C 16,4 C 9,7 km/h (2 Bft) 100 %
24.05.2017 09:10 16,6 C 16,4 C 16,7 C 61 % 1022,5 hPa 0,0 l/m 1,6 km/h (1 Bft) NW 315 10 min 0,000 mm 559 W/m 9,0 C 16,6 C 9,7 km/h (2 Bft) 100 %
24.05.2017 09:20 16,8 C 16,6 C 16,8 C 63 % 1022,6 hPa 0,0 l/m 1,6 km/h (1 Bft) NW 315 10 min 0,000 mm 587 W/m 9,7 C 16,8 C 17,7 km/h (3 Bft) 100 %
24.05.2017 09:30 17,1 C 16,8 C 17,1 C 63 % 1022,5 hPa 0,0 l/m 1,6 km/h (1 Bft) NW 315 10 min 0,000 mm 605 W/m 10,0 C 17,1 C 12,9 km/h (3 Bft) 100 %
24.05.2017 09:40 17,4 C 17,1 C 17,4 C 66 % 1022,7 hPa 0,0 l/m 1,6 km/h (1 Bft) NW 315 10 min 0,000 mm 694 W/m 11,0 C 17,4 C 11,3 km/h (2 Bft) 100 %
24.05.2017 09:50 17,6 C 17,4 C 17,6 C 61 % 1022,7 hPa 0,0 l/m 1,6 km/h (1 Bft) W-NW 292 10 min 0,000 mm 758 W/m 10,0 C 17,6 C 11,3 km/h (2 Bft) 100 %
24.05.2017 10:00 18,1 C 17,6 C 18,1 C 63 % 1022,8 hPa 0,0 l/m 1,6 km/h (1 Bft) NW 315 10 min 0,305 mm 758 W/m 10,9 C 18,1 C 16,1 km/h (3 Bft) 99 %
24.05.2017 10:10 17,9 C 17,9 C 18,2 C 61 % 1022,7 hPa 0,0 l/m 6,4 km/h (2 Bft) NW 315 10 min 0,000 mm 631 W/m 10,3 C 17,9 C 22,5 km/h (4 Bft) 100 %
24.05.2017 10:20 17,8 C 17,8 C 17,9 C 62 % 1022,6 hPa 0,0 l/m 3,2 km/h (1 Bft) N-NW 337 10 min 0,000 mm 352 W/m 10,4 C 17,8 C 16,1 km/h (3 Bft) 100 %
24.05.2017 10:30 18,1 C 17,8 C 18,1 C 64 % 1022,6 hPa 0,0 l/m 3,2 km/h (1 Bft) NW 315 10 min 0,000 mm 846 W/m 11,2 C 18,1 C 11,3 km/h (2 Bft) 100 %
24.05.2017 10:40 18,3 C 18,2 C 18,3 C 60 % 1022,6 hPa 0,0 l/m 4,8 km/h (1 Bft) NW 315 10 min 0,000 mm 311 W/m 10,4 C 18,3 C 16,1 km/h (3 Bft) 100 %
24.05.2017 10:50 18,6 C 18,3 C 18,6 C 60 % 1022,4 hPa 0,0 l/m 4,8 km/h (1 Bft) NW 315 10 min 0,000 mm 809 W/m 10,7 C 18,6 C 14,5 km/h (3 Bft) 100 %
24.05.2017 11:00 19,0 C 18,6 C 19,0 C 59 % 1022,5 hPa 0,0 l/m 3,2 km/h (1 Bft) NW 315 10 min 0,305 mm 636 W/m 10,8 C 19,0 C 19,3 km/h (3 Bft) 100 %
24.05.2017 11:10 19,6 C 19,1 C 19,6 C 59 % 1022,6 hPa 0,0 l/m 3,2 km/h (1 Bft) W-NW 292 10 min 0,000 mm 830 W/m 11,4 C 19,6 C 20,9 km/h (4 Bft) 100 %
24.05.2017 11:20 19,8 C 19,6 C 19,8 C 60 % 1022,5 hPa 0,0 l/m 3,2 km/h (1 Bft) NW 315 10 min 0,000 mm 821 W/m 11,8 C 19,8 C 14,5 km/h (3 Bft) 100 %
24.05.2017 11:30 19,6 C 19,6 C 19,8 C 58 % 1022,3 hPa 0,0 l/m 6,4 km/h (2 Bft) NW 315 10 min 0,000 mm 436 W/m 11,1 C 19,6 C 20,9 km/h (4 Bft) 100 %
24.05.2017 11:40 19,4 C 19,4 C 19,6 C 58 % 1022,4 hPa 0,0 l/m 1,6 km/h (1 Bft) NW 315 10 min 0,000 mm 462 W/m 10,9 C 19,4 C 11,3 km/h (2 Bft) 100 %
24.05.2017 11:50 19,4 C 19,3 C 19,4 C 58 % 1022,4 hPa 0,0 l/m 6,4 km/h (2 Bft) NW 315 10 min 0,000 mm 712 W/m 10,9 C 19,4 C 16,1 km/h (3 Bft) 100 %
24.05.2017 12:00 19,7 C 19,5 C 19,7 C 58 % 1022,5 hPa 0,0 l/m 12,9 km/h (3 Bft) NW 315 10 min 0,381 mm 772 W/m 11,2 C 17,4 C 25,7 km/h (4 Bft) 100 %
24.05.2017 12:10 19,7 C 19,7 C 19,7 C 57 % 1022,3 hPa 0,0 l/m 8,0 km/h (2 Bft) W-NW 292 10 min 0,000 mm 601 W/m 10,9 C 19,0 C 17,7 km/h (3 Bft) 100 %
24.05.2017 12:20 19,6 C 19,6 C 19,7 C 58 % 1022,2 hPa 0,0 l/m 4,8 km/h (1 Bft) W-NW 292 10 min 0,000 mm 497 W/m 11,1 C 19,6 C 20,9 km/h (4 Bft) 100 %
24.05.2017 12:30 19,4 C 19,4 C 19,6 C 59 % 1022,2 hPa 0,0 l/m 8,0 km/h (2 Bft) NW 315 10 min 0,000 mm 415 W/m 11,2 C 18,7 C 19,3 km/h (3 Bft) 100 %
24.05.2017 12:40 19,1 C 19,1 C 19,4 C 59 % 1022,2 hPa 0,0 l/m 8,0 km/h (2 Bft) NW 315 10 min 0,000 mm 348 W/m 10,9 C 18,4 C 19,3 km/h (3 Bft) 100 %
24.05.2017 12:50 18,9 C 18,8 C 19,1 C 62 % 1022,2 hPa 0,0 l/m 8,0 km/h (2 Bft) NW 315 10 min 0,000 mm 241 W/m 11,5 C 18,2 C 17,7 km/h (3 Bft) 100 %
24.05.2017 13:00 18,8 C 18,7 C 18,8 C 62 % 1022,2 hPa 0,0 l/m 9,7 km/h (2 Bft) W-NW 292 10 min 0,254 mm 643 W/m 11,4 C 17,4 C 17,7 km/h (3 Bft) 100 %
24.05.2017 13:10 19,2 C 18,8 C 19,2 C 62 % 1022,1 hPa 0,0 l/m 6,4 km/h (2 Bft) NW 315 10 min 0,000 mm 506 W/m 11,7 C 19,2 C 20,9 km/h (4 Bft) 100 %
24.05.2017 13:20 19,7 C 19,2 C 19,7 C 61 % 1022,1 hPa 0,0 l/m 9,7 km/h (2 Bft) NW 315 10 min 0,000 mm 733 W/m 12,0 C 18,4 C 20,9 km/h (4 Bft) 100 %
24.05.2017 13:30 19,8 C 19,7 C 19,8 C 61 % 1022,1 hPa 0,0 l/m 9,7 km/h (2 Bft) W-NW 292 10 min 0,000 mm 420 W/m 12,1 C 18,5 C 17,7 km/h (3 Bft) 100 %
24.05.2017 13:40 19,6 C 19,6 C 19,8 C 60 % 1022,3 hPa 0,0 l/m 8,0 km/h (2 Bft) NW 315 10 min 0,000 mm 403 W/m 11,6 C 18,9 C 22,5 km/h (4 Bft) 100 %
24.05.2017 13:50 19,3 C 19,3 C 19,6 C 61 % 1022,2 hPa 0,0 l/m 9,7 km/h (2 Bft) W-NW 292 10 min 0,000 mm 406 W/m 11,6 C 18,0 C 22,5 km/h (4 Bft) 99 %
24.05.2017 14:00 19,3 C 19,3 C 19,3 C 62 % 1022,1 hPa 0,0 l/m 9,7 km/h (2 Bft) NW 315 10 min 0,279 mm 452 W/m 11,8 C 18,0 C 20,9 km/h (4 Bft) 100 %
24.05.2017 14:10 19,4 C 19,3 C 19,4 C 63 % 1022,0 hPa 0,0 l/m 12,9 km/h (3 Bft) NW 315 10 min 0,000 mm 596 W/m 12,2 C 17,1 C 20,9 km/h (4 Bft) 99 %
24.05.2017 14:20 19,8 C 19,4 C 19,8 C 63 % 1021,7 hPa 0,0 l/m 11,3 km/h (2 Bft) NW 315 10 min 0,000 mm 939 W/m 12,5 C 18,0 C 25,7 km/h (4 Bft) 100 %
24.05.2017 14:30 20,6 C 19,8 C 20,6 C 59 % 1021,7 hPa 0,0 l/m 6,4 km/h (2 Bft) NW 315 10 min 0,000 mm 933 W/m 12,3 C 20,6 C 19,3 km/h (3 Bft) 99 %
24.05.2017 14:40 20,6 C 20,6 C 20,7 C 60 % 1021,7 hPa 0,0 l/m 9,7 km/h (2 Bft) NW 315 10 min 0,000 mm 380 W/m 12,6 C 19,4 C 20,9 km/h (4 Bft) 100 %
24.05.2017 14:50 19,9 C 19,9 C 20,6 C 60 % 1021,8 hPa 0,0 l/m 12,9 km/h (3 Bft) NW 315 10 min 0,000 mm 269 W/m 11,9 C 17,7 C 29,0 km/h (5 Bft) 100 %
24.05.2017 15:00 19,6 C 19,6 C 19,9 C 59 % 1021,7 hPa 0,0 l/m 9,7 km/h (2 Bft) NW 315 10 min 0,305 mm 306 W/m 11,4 C 18,3 C 20,9 km/h (4 Bft) 100 %
24.05.2017 15:10 19,7 C 19,6 C 19,7 C 61 % 1021,8 hPa 0,0 l/m 4,8 km/h (1 Bft) W-NW 292 10 min 0,000 mm 408 W/m 12,0 C 19,7 C 19,3 km/h (3 Bft) 100 %
24.05.2017 15:20 20,1 C 19,7 C 20,1 C 62 % 1021,7 hPa 0,0 l/m 9,7 km/h (2 Bft) NW 315 10 min 0,000 mm 492 W/m 12,6 C 18,8 C 22,5 km/h (4 Bft) 100 %
24.05.2017 15:30 20,7 C 20,1 C 20,7 C 62 % 1021,7 hPa 0,0 l/m 11,3 km/h (2 Bft) NW 315 10 min 0,000 mm 497 W/m 13,2 C 19,0 C 29,0 km/h (5 Bft) 100 %
24.05.2017 15:40 20,9 C 20,7 C 20,9 C 59 % 1021,5 hPa 0,0 l/m 9,7 km/h (2 Bft) NW 315 10 min 0,000 mm 457 W/m 12,6 C 19,7 C 24,1 km/h (4 Bft) 100 %
24.05.2017 15:50 21,1 C 20,9 C 21,1 C 60 % 1021,4 hPa 0,0 l/m 12,9 km/h (3 Bft) NW 315 10 min 0,000 mm 540 W/m 13,0 C 19,1 C 22,5 km/h (4 Bft) 100 %
24.05.2017 16:00 21,1 C 21,1 C 21,2 C 58 % 1021,4 hPa 0,0 l/m 11,3 km/h (2 Bft) NW 315 10 min 0,305 mm 629 W/m 12,5 C 19,5 C 25,7 km/h (4 Bft) 100 %
24.05.2017 16:10 20,8 C 20,8 C 21,0 C 62 % 1021,5 hPa 0,0 l/m 11,3 km/h (2 Bft) NW 315 10 min 0,000 mm 459 W/m 13,2 C 19,1 C 22,5 km/h (4 Bft) 100 %
24.05.2017 16:20 20,8 C 20,8 C 20,8 C 62 % 1021,6 hPa 0,0 l/m 8,0 km/h (2 Bft) NW 315 10 min 0,000 mm 417 W/m 13,2 C 20,2 C 20,9 km/h (4 Bft) 100 %
24.05.2017 16:30 20,8 C 20,8 C 20,8 C 60 % 1021,6 hPa 0,0 l/m 6,4 km/h (2 Bft) NW 315 10 min 0,000 mm 388 W/m 12,7 C 20,8 C 19,3 km/h (3 Bft) 100 %
24.05.2017 16:40 20,8 C 20,8 C 20,8 C 60 % 1021,3 hPa 0,0 l/m 8,0 km/h (2 Bft) NW 315 10 min 0,000 mm 338 W/m 12,7 C 20,2 C 24,1 km/h (4 Bft) 100 %
24.05.2017 16:50 20,8 C 20,8 C 20,8 C 61 % 1021,3 hPa 0,0 l/m 11,3 km/h (2 Bft) NW 315 10 min 0,000 mm 299 W/m 13,0 C 19,1 C 25,7 km/h (4 Bft) 100 %
24.05.2017 17:00 20,8 C 20,7 C 20,8 C 61 % 1021,3 hPa 0,0 l/m 11,3 km/h (2 Bft) NW 315 10 min 0,254 mm 316 W/m 13,0 C 19,1 C 22,5 km/h (4 Bft) 100 %
24.05.2017 17:10 21,1 C 20,8 C 21,1 C 59 % 1021,1 hPa 0,0 l/m 6,4 km/h (2 Bft) NW 315 10 min 0,000 mm 287 W/m 12,8 C 21,1 C 20,9 km/h (4 Bft) 100 %
24.05.2017 17:20 21,1 C 21,1 C 21,1 C 60 % 1021,1 hPa 0,0 l/m 8,0 km/h (2 Bft) NW 315 10 min 0,000 mm 290 W/m 13,0 C 20,5 C 20,9 km/h (4 Bft) 100 %
24.05.2017 17:30 21,0 C 21,0 C 21,1 C 62 % 1021,1 hPa 0,0 l/m 4,8 km/h (1 Bft) NW 315 10 min 0,000 mm 283 W/m 13,4 C 21,0 C 19,3 km/h (3 Bft) 100 %
24.05.2017 17:40 20,8 C 20,8 C 21,0 C 62 % 1021,1 hPa 0,0 l/m 6,4 km/h (2 Bft) NW 315 10 min 0,000 mm 278 W/m 13,2 C 20,8 C 19,3 km/h (3 Bft) 100 %
24.05.2017 17:50 20,4 C 20,4 C 20,8 C 61 % 1020,8 hPa 0,0 l/m 4,8 km/h (1 Bft) NW 315 10 min 0,000 mm 206 W/m 12,6 C 20,4 C 19,3 km/h (3 Bft) 100 %
24.05.2017 18:00 20,0 C 20,0 C 20,4 C 62 % 1020,8 hPa 0,0 l/m 6,4 km/h (2 Bft) W-NW 292 10 min 0,178 mm 188 W/m 12,5 C 20,0 C 17,7 km/h (3 Bft) 100 %
24.05.2017 18:10 19,9 C 19,9 C 20,0 C 64 % 1020,7 hPa 0,0 l/m 3,2 km/h (1 Bft) NW 315 10 min 0,000 mm 193 W/m 12,9 C 19,9 C 14,5 km/h (3 Bft) 100 %
24.05.2017 18:20 19,8 C 19,8 C 19,9 C 66 % 1020,8 hPa 0,0 l/m 3,2 km/h (1 Bft) NW 315 10 min 0,000 mm 169 W/m 13,3 C 19,8 C 11,3 km/h (2 Bft) 100 %
24.05.2017 18:30 19,4 C 19,4 C 19,8 C 65 % 1020,7 hPa 0,0 l/m 3,2 km/h (1 Bft) NW 315 0 min 0,000 mm 72 W/m 12,6 C 19,4 C 14,5 km/h (3 Bft) 100 %
24.05.2017 18:40 19,1 C 19,1 C 19,4 C 65 % 1020,6 hPa 0,0 l/m 3,2 km/h (1 Bft) NW 315 0 min 0,000 mm 51 W/m 12,4 C 19,1 C 11,3 km/h (2 Bft) 100 %
24.05.2017 18:50 18,8 C 18,8 C 19,1 C 67 % 1020,6 hPa 0,0 l/m 0,0 km/h (0 Bft) NW 315 0 min 0,000 mm 39 W/m 12,5 C 18,8 C 8,0 km/h (2 Bft) 100 %
24.05.2017 19:00 18,6 C 18,6 C 18,8 C 67 % 1020,8 hPa 0,0 l/m 1,6 km/h (1 Bft) NW 315 0 min 0,076 mm 28 W/m 12,3 C 18,6 C 8,0 km/h (2 Bft) 100 %
24.05.2017 19:10 18,4 C 18,4 C 18,6 C 68 % 1020,7 hPa 0,0 l/m 1,6 km/h (1 Bft) NW 315 0 min 0,000 mm 26 W/m 12,4 C 18,4 C 6,4 km/h (2 Bft) 100 %
24.05.2017 19:20 18,2 C 18,2 C 18,4 C 69 % 1020,7 hPa 0,0 l/m 0,0 km/h (0 Bft) NW 315 0 min 0,000 mm 21 W/m 12,4 C 18,2 C 6,4 km/h (2 Bft) 100 %
24.05.2017 19:30 18,0 C 18,0 C 18,2 C 71 % 1020,7 hPa 0,0 l/m 0,0 km/h (0 Bft) NW 315 0 min 0,000 mm 19 W/m 12,7 C 18,0 C 3,2 km/h (1 Bft) 100 %
24.05.2017 19:40 17,8 C 17,8 C 18,2 C 75 % 1020,8 hPa 0,0 l/m 0,0 km/h (0 Bft) NW 312 0 min 0,000 mm 16 W/m 13,3 C 17,8 C 0,0 km/h (0 Bft) 97 %
24.05.2017 19:50 17,5 C 17,5 C 17,8 C 76 % 1020,9 hPa 0,0 l/m 0,0 km/h (0 Bft) NW 312 0 min 0,000 mm 9 W/m 13,2 C 17,5 C 0,0 km/h (0 Bft) 98 %
24.05.2017 20:00 17,2 C 17,2 C 17,5 C 77 % 1021,2 hPa 0,0 l/m 0,0 km/h (0 Bft) NW 312 0 min 0,000 mm 0 W/m 13,1 C 17,2 C 0,0 km/h (0 Bft) 98 %
24.05.2017 20:10 16,7 C 16,7 C 17,2 C 81 % 1021,0 hPa 0,6 l/m 0,3 km/h (0 Bft) SW 223 0 min 0,002 mm 0 W/m 13,4 C 16,7 C 8,0 km/h (2 Bft) 97 %
24.05.2017 20:20 16,1 C 16,1 C 16,7 C 84 % 1021,2 hPa 0,2 l/m 0,0 km/h (0 Bft) O-SO 120 0 min 0,000 mm 5 W/m 13,4 C 16,1 C 0,0 km/h (0 Bft) 98 %
24.05.2017 20:30 15,6 C 15,6 C 16,1 C 87 % 1021,4 hPa 0,2 l/m 0,0 km/h (0 Bft) O-SO 120 0 min 0,000 mm 0 W/m 13,4 C 15,6 C 0,0 km/h (0 Bft) 98 %
24.05.2017 20:40 15,1 C 15,1 C 15,6 C 88 % 1021,3 hPa 0,6 l/m 0,0 km/h (0 Bft) O-SO 120 0 min 0,000 mm 0 W/m 13,1 C 15,1 C 0,0 km/h (0 Bft) 98 %
24.05.2017 20:50 15,0 C 15,0 C 15,1 C 89 % 1021,3 hPa 0,0 l/m 0,0 km/h (0 Bft) O-SO 120 0 min 0,000 mm 0 W/m 13,2 C 15,0 C 0,0 km/h (0 Bft) 98 %
24.05.2017 21:00 14,8 C 14,8 C 15,0 C 89 % 1021,3 hPa 0,0 l/m 0,0 km/h (0 Bft) O-SO 120 0 min 0,000 mm 0 W/m 13,0 C 14,8 C 0,0 km/h (0 Bft) 97 %
24.05.2017 21:10 14,6 C 14,6 C 14,8 C 89 % 1021,3 hPa 0,0 l/m 0,0 km/h (0 Bft) N 0 0 min 0,000 mm 0 W/m 12,8 C 14,6 C 0,0 km/h (0 Bft) 100 %
24.05.2017 21:20 14,4 C 14,4 C 14,6 C 90 % 1021,3 hPa 0,0 l/m 0,0 km/h (0 Bft) N 0 0 min 0,000 mm 0 W/m 12,8 C 14,4 C 0,0 km/h (0 Bft) 100 %
24.05.2017 21:30 14,3 C 14,3 C 14,4 C 90 % 1021,4 hPa 0,0 l/m 0,0 km/h (0 Bft) N 0 0 min 0,000 mm 0 W/m 12,7 C 14,3 C 0,0 km/h (0 Bft) 100 %
24.05.2017 21:40 14,2 C 14,2 C 14,3 C 90 % 1021,4 hPa 0,0 l/m 0,0 km/h (0 Bft) N 0 0 min 0,000 mm 0 W/m 12,6 C 14,2 C 0,0 km/h (0 Bft) 100 %
24.05.2017 21:50 14,1 C 14,1 C 14,2 C 90 % 1021,5 hPa 0,0 l/m 0,0 km/h (0 Bft) N 0 0 min 0,000 mm 0 W/m 12,5 C 14,1 C 0,0 km/h (0 Bft) 100 %
24.05.2017 22:00 14,1 C 14,1 C 14,1 C 90 % 1021,5 hPa 0,0 l/m 0,0 km/h (0 Bft) N 0 0 min 0,000 mm 0 W/m 12,5 C 14,1 C 0,0 km/h (0 Bft) 100 %
24.05.2017 22:10 14,0 C 14,0 C 14,1 C 90 % 1021,5 hPa 0,0 l/m 0,0 km/h (0 Bft) N 0 0 min 0,000 mm 0 W/m 12,4 C 14,0 C 0,0 km/h (0 Bft) 100 %
24.05.2017 22:20 13,9 C 13,9 C 14,0 C 90 % 1021,5 hPa 0,0 l/m 0,0 km/h (0 Bft) N 0 0 min 0,000 mm 0 W/m 12,3 C 13,9 C 0,0 km/h (0 Bft) 100 %
24.05.2017 22:30 13,8 C 13,8 C 13,9 C 90 % 1021,4 hPa 0,0 l/m 0,0 km/h (0 Bft) N 0 0 min 0,000 mm 0 W/m 12,2 C 13,8 C 0,0 km/h (0 Bft) 100 %
24.05.2017 22:40 13,8 C 13,7 C 13,8 C 91 % 1021,6 hPa 0,0 l/m 0,0 km/h (0 Bft) N 0 0 min 0,000 mm 0 W/m 12,4 C 13,8 C 0,0 km/h (0 Bft) 100 %
24.05.2017 22:50 13,8 C 13,8 C 13,8 C 91 % 1021,4 hPa 0,0 l/m 0,0 km/h (0 Bft) N 0 0 min 0,000 mm 0 W/m 12,4 C 13,8 C 0,0 km/h (0 Bft) 100 %
24.05.2017 23:00 13,7 C 13,7 C 13,8 C 91 % 1021,5 hPa 0,0 l/m 0,0 km/h (0 Bft) N 0 0 min 0,000 mm 0 W/m 12,3 C 13,7 C 0,0 km/h (0 Bft) 100 %
24.05.2017 23:10 13,5 C 13,5 C 13,7 C 91 % 1021,5 hPa 0,0 l/m 0,0 km/h (0 Bft) N 0 0 min 0,000 mm 0 W/m 12,1 C 13,5 C 0,0 km/h (0 Bft) 100 %
24.05.2017 23:20 13,4 C 13,4 C 13,6 C 91 % 1021,5 hPa 0,0 l/m 0,0 km/h (0 Bft) N 0 0 min 0,000 mm 0 W/m 12,0 C 13,4 C 0,0 km/h (0 Bft) 100 %
24.05.2017 23:30 13,4 C 13,3 C 13,4 C 91 % 1021,4 hPa 0,0 l/m 0,0 km/h (0 Bft) N 0 0 min 0,000 mm 0 W/m 12,0 C 13,4 C 0,0 km/h (0 Bft) 100 %
24.05.2017 23:40 13,3 C 13,3 C 13,4 C 91 % 1021,6 hPa 0,0 l/m 0,0 km/h (0 Bft) N 0 0 min 0,000 mm 0 W/m 11,9 C 13,3 C 0,0 km/h (0 Bft) 100 %
24.05.2017 23:50 13,2 C 13,2 C 13,3 C 91 % 1021,5 hPa 0,0 l/m 0,0 km/h (0 Bft) N 0 0 min 0,000 mm 0 W/m 11,8 C 13,2 C 0,0 km/h (0 Bft) 99 %
_ Min-Zeit 07:00 07:00 07:00 12:10 00:00 - 03:50 - - - - - 06:00 07:10 05:40 01:40
Minimum _ 11,2 C 11,2 C 11,3 C 57 % 1019,1 hPa - 0,0 km/h (0 Bft) - - - - - 7,4 C 10,2 C 0,0 km/h (0 Bft) 96 %
_ Max-Zeit 16:00 16:00 16:00 22:40 10:00 20:10 12:00 - - 08:10 12:00 14:20 20:30 17:10 14:50 00:00
Maximum _ 21,2 C 21,1 C 21,2 C 91 % 1022,8 hPa 0,6 l/m 12,9 km/h
NW (3 Bft)
- - 10 min 0,381 mm 939 W/m 13,4 C 21,1 C 29,0 km/h
NW (5 Bft)
100 %
Durchschnitt _ 16,4 C 16,3 C 16,5 C 71 % 1021,3 hPa #1,6 l/m 4,1 km/h (1 Bft) NW - #10:20 h #3,048 mm 352 W/m 11,0 C 16,1 C 11,9 km/h (2 Bft) 99 %
PRIVATE WETTERSTATION BILLIGHEIM-ALLFELD - www.neckar-odenwald-wetter.de - Holger Sonntag